createdAt,value
2022-11-30T00:01:20.149Z,2.10
2022-11-30T00:03:47.555Z,2.00
2022-11-30T00:06:15.933Z,2.10
2022-11-30T00:08:43.489Z,2.10
2022-11-30T00:11:12.024Z,2.20
2022-11-30T00:13:39.257Z,2.20
2022-11-30T00:16:06.796Z,2.20
2022-11-30T00:18:34.035Z,2.20
2022-11-30T00:21:02.396Z,2.20
2022-11-30T00:23:33.650Z,2.20
2022-11-30T00:26:04.406Z,2.10
2022-11-30T00:28:31.751Z,2.00
2022-11-30T00:31:03.271Z,2.10
2022-11-30T00:33:32.915Z,2.10
2022-11-30T00:36:01.499Z,2.10
2022-11-30T00:38:28.767Z,2.10
2022-11-30T00:40:56.780Z,2.10
2022-11-30T00:43:24.341Z,2.10
2022-11-30T00:45:51.548Z,2.10
2022-11-30T00:48:18.773Z,2.10
2022-11-30T00:50:45.901Z,2.10
2022-11-30T00:53:13.142Z,2.20
2022-11-30T00:55:40.279Z,2.10
2022-11-30T00:58:07.826Z,2.10
2022-11-30T01:00:35.039Z,2.20
2022-11-30T01:03:03.007Z,2.10
2022-11-30T01:05:30.172Z,2.20
2022-11-30T01:08:00.545Z,2.10
2022-11-30T01:10:27.700Z,2.10
2022-11-30T01:12:54.895Z,2.20
2022-11-30T01:15:22.113Z,2.10
2022-11-30T01:17:49.496Z,2.20
2022-11-30T01:20:16.627Z,2.20
2022-11-30T01:22:43.915Z,2.20
2022-11-30T01:25:11.125Z,2.20
2022-11-30T01:27:38.356Z,2.20
2022-11-30T01:30:06.235Z,2.20
2022-11-30T01:32:33.253Z,2.20
2022-11-30T01:35:00.342Z,2.10
2022-11-30T01:37:30.414Z,2.10
2022-11-30T01:39:57.745Z,2.10
2022-11-30T01:42:25.356Z,2.10
2022-11-30T01:44:59.791Z,2.00
2022-11-30T01:47:49.190Z,2.10
2022-11-30T01:50:26.002Z,2.10
2022-11-30T01:52:54.805Z,2.10
2022-11-30T01:55:30.518Z,2.00
2022-11-30T01:58:09.751Z,2.10
2022-11-30T02:00:36.931Z,2.10
2022-11-30T02:03:24.596Z,2.10
2022-11-30T02:05:51.747Z,2.20
2022-11-30T02:08:18.941Z,2.00
2022-11-30T02:10:50.367Z,2.00
2022-11-30T02:13:35.534Z,2.00
2022-11-30T02:16:30.018Z,1.90
2022-11-30T02:19:15.913Z,1.90
2022-11-30T02:22:08.496Z,1.90
2022-11-30T02:24:54.137Z,1.90
2022-11-30T02:27:44.227Z,2.00
2022-11-30T02:30:16.112Z,1.90
2022-11-30T02:32:45.244Z,1.90
2022-11-30T02:35:12.752Z,1.80
2022-11-30T02:37:39.998Z,1.70
2022-11-30T02:40:18.004Z,1.70
2022-11-30T02:42:45.198Z,1.60
2022-11-30T02:45:12.298Z,1.50
2022-11-30T02:47:47.011Z,1.40
2022-11-30T02:50:26.160Z,1.30
2022-11-30T02:52:53.375Z,1.30
2022-11-30T02:55:20.926Z,1.40
2022-11-30T02:57:48.037Z,1.40
2022-11-30T03:00:15.865Z,1.50
2022-11-30T03:02:43.161Z,1.40
2022-11-30T03:05:10.843Z,1.50
2022-11-30T03:07:38.188Z,1.40
2022-11-30T03:10:06.299Z,1.40
2022-11-30T03:12:33.452Z,1.40
2022-11-30T03:15:00.874Z,1.40
2022-11-30T03:17:28.015Z,1.40
2022-11-30T03:19:55.133Z,1.30
2022-11-30T03:22:22.338Z,1.30
2022-11-30T03:24:49.728Z,1.30
2022-11-30T03:27:17.074Z,1.20
2022-11-30T03:29:44.600Z,1.30
2022-11-30T03:32:11.785Z,1.30
2022-11-30T03:34:39.011Z,1.20
2022-11-30T03:37:06.402Z,1.20
2022-11-30T03:39:33.797Z,1.20
2022-11-30T03:42:00.900Z,1.30
2022-11-30T03:44:28.155Z,1.20
2022-11-30T03:46:55.281Z,1.20
2022-11-30T03:49:22.421Z,1.30
2022-11-30T03:51:49.634Z,1.40
2022-11-30T03:54:16.907Z,1.40
2022-11-30T03:56:44.059Z,1.40
2022-11-30T03:59:11.236Z,1.30
2022-11-30T04:01:41.150Z,1.30
2022-11-30T04:04:08.421Z,1.30
2022-11-30T04:06:35.682Z,1.20
2022-11-30T04:09:03.051Z,1.30
2022-11-30T04:11:30.210Z,1.30
2022-11-30T04:13:57.430Z,1.20
2022-11-30T04:16:24.866Z,1.20
2022-11-30T04:18:52.631Z,1.20
2022-11-30T04:21:19.792Z,1.10
2022-11-30T04:23:47.185Z,1.10
2022-11-30T04:26:15.809Z,1.00
2022-11-30T04:28:43.681Z,1.10
2022-11-30T04:31:10.924Z,1.10
2022-11-30T04:33:38.156Z,1.20
2022-11-30T04:36:06.389Z,1.30
2022-11-30T04:38:33.577Z,1.20
2022-11-30T04:41:00.721Z,1.30
2022-11-30T04:43:28.012Z,1.30
2022-11-30T04:45:55.093Z,1.30
2022-11-30T04:48:22.413Z,1.30
2022-11-30T04:50:49.598Z,1.40
2022-11-30T04:53:16.741Z,1.30
2022-11-30T04:55:44.019Z,1.30
2022-11-30T04:58:11.055Z,1.30
2022-11-30T05:00:38.200Z,1.20
2022-11-30T05:03:05.309Z,1.30
2022-11-30T05:05:32.411Z,1.30
2022-11-30T05:08:00.014Z,1.20
2022-11-30T05:10:27.579Z,1.20
2022-11-30T05:12:54.779Z,1.20
2022-11-30T05:15:21.826Z,1.30
2022-11-30T05:17:49.265Z,1.30
2022-11-30T05:20:16.721Z,1.30
2022-11-30T05:22:43.820Z,1.20
2022-11-30T05:25:10.875Z,1.20
2022-11-30T05:27:38.130Z,1.30
2022-11-30T05:30:06.379Z,1.20
2022-11-30T05:32:33.465Z,1.20
2022-11-30T05:35:00.623Z,1.20
2022-11-30T05:37:27.798Z,1.20
2022-11-30T05:39:54.860Z,1.20
2022-11-30T05:42:22.107Z,1.20
2022-11-30T05:44:49.751Z,1.20
2022-11-30T05:47:17.180Z,1.20
2022-11-30T05:49:44.428Z,1.10
2022-11-30T05:52:11.467Z,1.20
2022-11-30T05:54:38.536Z,1.10
2022-11-30T05:57:05.623Z,1.10
2022-11-30T05:59:32.718Z,1.00
2022-11-30T06:01:59.915Z,0.90
2022-11-30T06:04:27.363Z,0.90
2022-11-30T06:06:55.989Z,0.90
2022-11-30T06:09:23.344Z,0.80
2022-11-30T06:11:50.710Z,0.70
2022-11-30T06:14:17.781Z,0.70
2022-11-30T06:16:44.908Z,0.70
2022-11-30T06:19:12.029Z,0.70
2022-11-30T06:21:39.253Z,0.70
2022-11-30T06:24:06.811Z,0.70
2022-11-30T06:26:33.856Z,0.70
2022-11-30T06:29:00.909Z,0.80
2022-11-30T06:31:28.130Z,0.80
2022-11-30T06:33:58.822Z,0.70
2022-11-30T06:36:28.888Z,0.60
2022-11-30T06:38:59.701Z,0.60
2022-11-30T06:41:27.487Z,0.60
2022-11-30T06:43:54.858Z,0.50
2022-11-30T06:46:22.629Z,0.60
2022-11-30T06:48:50.942Z,0.50
2022-11-30T06:51:18.129Z,0.50
2022-11-30T06:53:45.524Z,0.40
2022-11-30T06:56:13.016Z,0.40
2022-11-30T06:58:40.168Z,0.40
2022-11-30T07:01:13.426Z,0.50
2022-11-30T07:03:40.994Z,0.40
2022-11-30T07:06:09.488Z,0.40
2022-11-30T07:08:36.751Z,0.50
2022-11-30T07:11:04.014Z,0.50
2022-11-30T07:13:32.526Z,0.50
2022-11-30T07:15:59.818Z,0.40
2022-11-30T07:18:31.663Z,0.30
2022-11-30T07:21:02.695Z,0.40
2022-11-30T07:23:55.523Z,0.50
2022-11-30T07:26:23.777Z,0.60
2022-11-30T07:28:55.084Z,0.60
2022-11-30T07:31:27.556Z,0.60
2022-11-30T07:33:54.949Z,0.40
2022-11-30T07:36:22.746Z,0.40
2022-11-30T07:38:50.168Z,0.40
2022-11-30T07:41:17.249Z,0.40
2022-11-30T07:43:44.528Z,0.50
2022-11-30T07:46:15.192Z,0.50
2022-11-30T07:48:42.745Z,0.60
2022-11-30T07:51:14.450Z,0.60
2022-11-30T07:53:41.760Z,0.70
2022-11-30T07:56:11.025Z,0.80
2022-11-30T07:58:38.890Z,0.80
2022-11-30T08:01:08.078Z,0.90
2022-11-30T08:03:37.232Z,0.80
2022-11-30T08:06:07.425Z,0.90
2022-11-30T08:08:36.337Z,1.10
2022-11-30T08:11:03.717Z,1.20
2022-11-30T08:13:31.037Z,1.20
2022-11-30T08:16:04.629Z,1.30
2022-11-30T08:18:31.756Z,1.30
2022-11-30T08:21:00.374Z,1.30
2022-11-30T08:23:38.343Z,1.40
2022-11-30T08:26:06.456Z,1.70
2022-11-30T08:28:36.174Z,1.80
2022-11-30T08:31:04.897Z,1.90
2022-11-30T08:33:32.661Z,2.00
2022-11-30T08:36:15.672Z,2.10
2022-11-30T08:38:43.805Z,2.30
2022-11-30T08:41:12.205Z,2.30
2022-11-30T08:43:39.576Z,2.30
2022-11-30T08:46:35.120Z,2.30
2022-11-30T08:49:19.943Z,2.40
2022-11-30T08:54:33.307Z,2.70
2022-11-30T08:57:00.353Z,2.60
2022-11-30T08:59:27.354Z,2.70
2022-11-30T09:01:54.702Z,2.80
2022-11-30T09:04:22.052Z,2.90
2022-11-30T09:06:49.292Z,3.00
2022-11-30T09:09:16.550Z,3.10
2022-11-30T09:11:43.852Z,3.10
2022-11-30T09:14:10.862Z,3.10
2022-11-30T09:16:38.099Z,3.20
2022-11-30T09:19:05.351Z,3.20
2022-11-30T09:21:32.706Z,3.10
2022-11-30T09:23:59.992Z,3.20
2022-11-30T09:26:27.166Z,3.20
2022-11-30T09:28:54.730Z,3.20
2022-11-30T09:31:26.084Z,3.10
2022-11-30T09:33:53.330Z,3.20
2022-11-30T09:36:21.220Z,3.30
2022-11-30T09:38:48.721Z,3.30
2022-11-30T09:41:34.484Z,3.40
2022-11-30T09:44:40.506Z,3.50
2022-11-30T09:47:43.394Z,3.60
2022-11-30T09:50:16.517Z,3.60
2022-11-30T09:52:48.967Z,3.50
2022-11-30T09:55:22.814Z,3.60
2022-11-30T09:57:54.408Z,3.60
2022-11-30T10:00:23.067Z,3.70
2022-11-30T10:02:51.024Z,3.80
2022-11-30T10:05:42.726Z,3.70
2022-11-30T10:08:31.902Z,3.50
2022-11-30T10:11:14.092Z,3.50
2022-11-30T10:13:53.259Z,3.60
2022-11-30T10:16:33.546Z,3.60
2022-11-30T10:19:22.344Z,3.50
2022-11-30T10:22:07.350Z,3.90
2022-11-30T10:24:49.552Z,4.10
2022-11-30T10:27:38.593Z,4.10
2022-11-30T10:30:22.786Z,4.20
2022-11-30T10:32:57.705Z,4.30
2022-11-30T10:35:35.319Z,4.30
2022-11-30T10:38:29.963Z,4.30
2022-11-30T10:41:04.349Z,4.30
2022-11-30T10:43:34.246Z,4.50
2022-11-30T10:46:01.333Z,4.70
2022-11-30T10:48:34.540Z,4.90
2022-11-30T10:51:01.724Z,4.90
2022-11-30T10:53:28.751Z,5.00
2022-11-30T10:55:57.261Z,5.20
2022-11-30T10:58:39.402Z,5.10
2022-11-30T11:01:10.733Z,5.20
2022-11-30T11:03:38.536Z,5.20
2022-11-30T11:06:22.214Z,5.30
2022-11-30T11:08:49.883Z,5.30
2022-11-30T11:11:26.852Z,5.20
2022-11-30T11:13:53.961Z,5.10
2022-11-30T11:16:21.115Z,5.30
2022-11-30T11:18:55.594Z,5.40
2022-11-30T11:21:23.072Z,5.40
2022-11-30T11:23:52.283Z,5.30
2022-11-30T11:26:20.141Z,5.40
2022-11-30T11:28:51.483Z,5.30
2022-11-30T11:31:38.602Z,5.60
2022-11-30T11:34:06.628Z,5.60
2022-11-30T11:36:34.173Z,5.80
2022-11-30T11:39:01.607Z,5.80
2022-11-30T11:41:31.510Z,5.80
2022-11-30T11:44:00.018Z,5.80
2022-11-30T11:46:27.250Z,5.80
2022-11-30T11:49:17.421Z,5.70
2022-11-30T11:51:46.025Z,5.80
2022-11-30T11:54:27.945Z,5.90
2022-11-30T11:56:55.565Z,5.70
2022-11-30T11:59:41.163Z,5.60
2022-11-30T12:02:08.217Z,5.70
2022-11-30T12:04:54.498Z,5.70
2022-11-30T12:07:32.548Z,5.60
2022-11-30T12:13:22.960Z,6.00
2022-11-30T12:15:58.697Z,6.00
2022-11-30T12:18:31.157Z,5.90
2022-11-30T12:21:22.077Z,6.00
2022-11-30T12:24:13.695Z,5.80
2022-11-30T12:26:56.634Z,5.80
2022-11-30T12:29:47.571Z,5.80
2022-11-30T12:32:44.225Z,5.50
2022-11-30T12:35:29.963Z,5.40
2022-11-30T12:38:35.240Z,5.50
2022-11-30T12:41:26.285Z,5.50
2022-11-30T12:44:08.688Z,5.60
2022-11-30T12:46:46.387Z,5.70
2022-11-30T12:49:50.220Z,5.70
2022-11-30T12:52:39.688Z,5.50
2022-11-30T12:55:25.391Z,5.60
2022-11-30T12:58:08.567Z,5.80
2022-11-30T13:01:11.591Z,5.90
2022-11-30T13:03:48.079Z,5.90
2022-11-30T13:06:18.506Z,5.90
2022-11-30T13:08:47.847Z,5.80
2022-11-30T13:11:37.239Z,5.60
2022-11-30T13:14:07.091Z,5.40
2022-11-30T13:16:34.125Z,5.40
2022-11-30T13:19:23.155Z,5.30
2022-11-30T13:21:54.239Z,5.40
2022-11-30T13:24:29.257Z,5.40
2022-11-30T13:27:11.197Z,5.40
2022-11-30T13:30:15.158Z,5.40
2022-11-30T13:32:57.769Z,5.40
2022-11-30T13:35:28.918Z,5.50
2022-11-30T13:38:35.768Z,5.30
2022-11-30T13:41:03.281Z,5.40
2022-11-30T13:43:32.198Z,5.40
2022-11-30T13:46:26.889Z,5.40
2022-11-30T13:49:12.671Z,5.40
2022-11-30T13:51:42.288Z,5.40
2022-11-30T13:54:40.550Z,5.30
2022-11-30T13:57:29.473Z,5.40
2022-11-30T14:00:00.647Z,5.30
2022-11-30T14:02:41.154Z,5.20
2022-11-30T14:05:17.631Z,5.00
2022-11-30T14:08:08.350Z,4.90
2022-11-30T14:10:37.592Z,4.90
2022-11-30T14:13:10.945Z,4.90
2022-11-30T14:15:41.890Z,4.90
2022-11-30T14:18:08.889Z,5.10
2022-11-30T14:20:40.066Z,4.80
2022-11-30T14:23:08.094Z,4.70
2022-11-30T14:25:35.403Z,4.60
2022-11-30T14:28:03.764Z,4.60
2022-11-30T14:30:31.915Z,4.50
2022-11-30T14:33:02.223Z,4.40
2022-11-30T14:35:29.989Z,4.30
2022-11-30T14:37:58.607Z,4.30
2022-11-30T14:40:27.602Z,4.40
2022-11-30T14:43:02.369Z,4.40
2022-11-30T14:45:31.264Z,4.30
2022-11-30T14:48:24.817Z,4.20
2022-11-30T14:50:53.693Z,4.00
2022-11-30T14:53:41.714Z,3.90
2022-11-30T14:56:27.362Z,3.80
2022-11-30T14:59:27.222Z,3.90
2022-11-30T15:01:58.205Z,3.90
2022-11-30T15:04:27.565Z,3.80
2022-11-30T15:06:55.654Z,3.60
2022-11-30T15:09:30.683Z,3.70
2022-11-30T15:11:58.196Z,3.60
2022-11-30T15:14:25.663Z,3.60
2022-11-30T15:16:54.287Z,3.50
2022-11-30T15:19:26.025Z,3.40
2022-11-30T15:21:53.674Z,3.40
2022-11-30T15:24:21.085Z,3.30
2022-11-30T15:27:11.341Z,3.30
2022-11-30T15:29:40.894Z,3.40
2022-11-30T15:32:15.711Z,3.50
2022-11-30T15:34:53.491Z,3.50
2022-11-30T15:37:33.808Z,3.30
2022-11-30T15:40:02.687Z,3.20
2022-11-30T15:42:40.458Z,3.20
2022-11-30T15:45:24.107Z,3.10
2022-11-30T15:47:51.529Z,3.20
2022-11-30T15:50:39.522Z,3.10
2022-11-30T15:53:33.596Z,3.20
2022-11-30T15:56:08.392Z,3.20
2022-11-30T15:58:45.667Z,3.20
2022-11-30T16:01:22.424Z,3.20
2022-11-30T16:03:55.946Z,3.10
2022-11-30T16:06:24.131Z,3.00
2022-11-30T16:08:51.411Z,2.90
2022-11-30T16:11:18.902Z,2.90
2022-11-30T16:13:47.627Z,2.90
2022-11-30T16:16:22.436Z,2.80
2022-11-30T16:18:50.143Z,2.90
2022-11-30T16:21:18.754Z,2.90
2022-11-30T16:23:45.957Z,3.00
2022-11-30T16:26:43.129Z,3.00
2022-11-30T16:29:02.738Z,3.10
2022-11-30T16:31:29.911Z,3.00
2022-11-30T16:33:57.228Z,3.00
2022-11-30T16:36:24.325Z,3.10
2022-11-30T16:38:52.369Z,3.00
2022-11-30T16:41:20.308Z,3.10
2022-11-30T16:43:48.657Z,3.10
2022-11-30T16:46:20.470Z,3.10
2022-11-30T16:48:47.877Z,3.00
2022-11-30T16:51:36.975Z,2.90
2022-11-30T16:54:04.403Z,2.80
2022-11-30T16:56:31.607Z,2.80
2022-11-30T16:58:58.819Z,2.70
2022-11-30T17:01:34.736Z,2.80
2022-11-30T17:04:07.141Z,2.90
2022-11-30T17:06:34.210Z,2.80
2022-11-30T17:09:01.226Z,2.70
2022-11-30T17:11:30.358Z,2.70
2022-11-30T17:13:57.383Z,2.80
2022-11-30T17:16:24.514Z,2.90
2022-11-30T17:18:51.640Z,2.90
2022-11-30T17:21:22.583Z,2.90
2022-11-30T17:23:49.780Z,2.70
2022-11-30T17:26:17.279Z,2.70
2022-11-30T17:28:44.665Z,2.70
2022-11-30T17:31:12.371Z,2.50
2022-11-30T17:33:43.521Z,2.60
2022-11-30T17:36:14.491Z,2.50
2022-11-30T17:38:42.570Z,2.50
2022-11-30T17:41:14.208Z,2.60
2022-11-30T17:43:44.353Z,2.50
2022-11-30T17:46:13.412Z,2.60
2022-11-30T17:48:40.816Z,2.70
2022-11-30T17:51:08.226Z,2.70
2022-11-30T17:53:40.875Z,2.70
2022-11-30T17:56:12.928Z,2.80
2022-11-30T17:58:43.900Z,2.80
2022-11-30T18:01:18.311Z,2.80
2022-11-30T18:03:45.744Z,2.80
2022-11-30T18:06:13.104Z,2.90
2022-11-30T18:08:40.388Z,2.90
2022-11-30T18:11:14.914Z,2.90
2022-11-30T18:13:42.141Z,2.90
2022-11-30T18:16:13.582Z,2.80
2022-11-30T18:18:47.069Z,2.90
2022-11-30T18:21:16.585Z,2.90
2022-11-30T18:23:43.721Z,3.00
2022-11-30T18:26:21.741Z,3.00
2022-11-30T18:28:56.294Z,3.00
2022-11-30T18:31:23.522Z,3.00
2022-11-30T18:33:55.579Z,2.90
2022-11-30T18:36:22.926Z,3.10
2022-11-30T18:38:50.101Z,3.00
2022-11-30T18:41:17.281Z,3.00
2022-11-30T18:43:44.627Z,3.00
2022-11-30T18:46:12.605Z,3.00
2022-11-30T18:48:40.420Z,3.00
2022-11-30T18:51:20.948Z,3.00
2022-11-30T18:53:48.255Z,2.90
2022-11-30T18:56:19.609Z,3.00
2022-11-30T18:58:47.169Z,3.00
2022-11-30T19:01:16.318Z,3.00
2022-11-30T19:03:43.576Z,3.00
2022-11-30T19:06:11.317Z,3.00
2022-11-30T19:08:39.454Z,2.90
2022-11-30T19:11:08.702Z,2.90
2022-11-30T19:13:36.193Z,3.00
2022-11-30T19:16:08.383Z,3.00
2022-11-30T19:18:35.694Z,3.00
2022-11-30T19:21:07.722Z,2.90
2022-11-30T19:23:34.891Z,2.90
2022-11-30T19:26:02.435Z,2.80
2022-11-30T19:28:30.621Z,2.80
2022-11-30T19:30:58.541Z,2.80
2022-11-30T19:33:26.520Z,2.90
2022-11-30T19:35:53.688Z,2.90
2022-11-30T19:38:20.807Z,3.00
2022-11-30T19:40:47.909Z,3.10
2022-11-30T19:43:15.191Z,3.10
2022-11-30T19:45:42.483Z,3.00
2022-11-30T19:48:09.621Z,3.00
2022-11-30T19:50:37.787Z,3.00
2022-11-30T19:53:06.077Z,3.00
2022-11-30T19:55:33.455Z,3.00
2022-11-30T19:58:00.920Z,3.00
2022-11-30T20:00:28.134Z,3.00
2022-11-30T20:02:55.282Z,3.00
2022-11-30T20:05:22.571Z,3.00
2022-11-30T20:07:49.880Z,3.00
2022-11-30T20:10:17.164Z,3.00
2022-11-30T20:12:44.343Z,3.00
2022-11-30T20:15:11.766Z,3.10
2022-11-30T20:17:39.087Z,3.10
2022-11-30T20:20:06.877Z,3.00
2022-11-30T20:22:34.030Z,3.10
2022-11-30T20:25:01.238Z,3.00
2022-11-30T20:27:28.436Z,3.10
2022-11-30T20:29:56.377Z,3.00
2022-11-30T20:32:23.798Z,3.00
2022-11-30T20:34:51.204Z,3.00
2022-11-30T20:37:18.998Z,3.00
2022-11-30T20:39:46.490Z,2.90
2022-11-30T20:42:14.165Z,2.90
2022-11-30T20:44:41.267Z,2.90
2022-11-30T20:47:08.422Z,2.90
2022-11-30T20:49:35.828Z,3.00
2022-11-30T20:52:03.100Z,3.10
2022-11-30T20:54:30.760Z,3.10
2022-11-30T20:56:59.242Z,3.10
2022-11-30T20:59:29.686Z,3.10
2022-11-30T21:01:57.055Z,3.10
2022-11-30T21:04:24.726Z,3.10
2022-11-30T21:06:52.067Z,3.00
2022-11-30T21:09:19.400Z,3.00
2022-11-30T21:11:47.132Z,3.10
2022-11-30T21:14:14.827Z,3.20
2022-11-30T21:16:42.452Z,3.20
2022-11-30T21:19:10.891Z,3.20
2022-11-30T21:21:38.058Z,3.20
2022-11-30T21:24:07.213Z,3.20
2022-11-30T21:26:41.678Z,3.00
2022-11-30T21:29:11.765Z,2.90
2022-11-30T21:31:39.132Z,2.90
2022-11-30T21:34:06.453Z,2.90
2022-11-30T21:36:33.935Z,2.90
2022-11-30T21:39:06.140Z,2.90
2022-11-30T21:41:35.115Z,3.00
2022-11-30T21:44:02.832Z,2.90
2022-11-30T21:46:30.239Z,2.80
2022-11-30T21:48:57.535Z,2.70
2022-11-30T21:51:25.912Z,2.80
2022-11-30T21:53:55.231Z,2.70
2022-11-30T21:56:24.291Z,2.80
2022-11-30T21:58:51.639Z,2.90
2022-11-30T22:01:26.990Z,2.90
2022-11-30T22:03:56.020Z,2.80
2022-11-30T22:06:24.007Z,2.80
2022-11-30T22:08:51.241Z,2.80
2022-11-30T22:11:20.046Z,2.80
2022-11-30T22:13:51.504Z,2.90
2022-11-30T22:16:18.888Z,3.00
2022-11-30T22:18:46.287Z,3.00
2022-11-30T22:21:21.400Z,3.00
2022-11-30T22:23:53.063Z,2.90
2022-11-30T22:26:21.937Z,2.70
2022-11-30T22:28:56.417Z,2.70
2022-11-30T22:31:25.822Z,2.70
2022-11-30T22:33:53.046Z,2.70
2022-11-30T22:36:22.160Z,2.80
2022-11-30T22:38:53.315Z,2.80
2022-11-30T22:41:20.418Z,2.70
2022-11-30T22:43:47.977Z,2.70
2022-11-30T22:46:24.303Z,2.60
2022-11-30T22:48:52.079Z,2.60
2022-11-30T22:51:21.267Z,2.60
2022-11-30T22:53:49.353Z,2.50
2022-11-30T22:56:21.693Z,2.50
2022-11-30T22:58:49.750Z,2.60
2022-11-30T23:01:18.556Z,2.50
2022-11-30T23:03:46.353Z,2.50
2022-11-30T23:06:14.432Z,2.20
2022-11-30T23:08:41.983Z,2.20
2022-11-30T23:11:10.918Z,2.10
2022-11-30T23:13:38.421Z,2.00
2022-11-30T23:16:05.978Z,2.00
2022-11-30T23:18:38.228Z,1.90
2022-11-30T23:21:09.951Z,1.90
2022-11-30T23:23:37.135Z,1.80
2022-11-30T23:26:11.399Z,1.80
2022-11-30T23:28:41.233Z,1.80
2022-11-30T23:31:34.189Z,1.80
2022-11-30T23:33:59.811Z,1.90
2022-11-30T23:36:27.069Z,1.80
2022-11-30T23:39:01.692Z,1.80
2022-11-30T23:41:28.967Z,1.70
2022-11-30T23:43:56.135Z,1.70
2022-11-30T23:46:23.480Z,1.60
2022-11-30T23:48:50.993Z,1.50
2022-11-30T23:51:18.383Z,1.50
2022-11-30T23:53:45.521Z,1.40
2022-11-30T23:56:14.352Z,1.50
2022-11-30T23:58:41.604Z,1.50
